Azamara Journey — 9HOB8 — position and weather

sailwx.info

Track history (hours):
 
Tides and Currents Weather Stations Pressure Air Temp Water Temp Dewpoint Dewpoint Depression Visibility Wind Speed Wind Dir Waves Ship Positions

Azamara Journey

Last reported at 2018-Dec-12 03:00 UTC. Time now 2018-Dec-12 14:56 UTC.
Position N 25°00' W 079°54'.

Type: Ship. MMSI: 256204000.

Wind from 340 at 11 knots

Barometer 1026.6 mb
Air temperature 16.0 ° C
Dewpoint 12.4 ° C

Date/timePositionNaut miles runAvg speedWind from/ knotsBaromVisibWave heightAir tempDewpointWater temp
2018-Dec-12 03:00N 25°00' W 079°54'2418.7 340 / 111026.6 16.012.4
2018-Dec-12 01:43N 25°24' W 079°53'314.1
2018-Dec-12 01:30N 25°27' W 079°53'713.9
2018-Dec-12 01:00N 25°34' W 079°52'713.3
2018-Dec-12 00:31N 25°40' W 079°54'815.0
2018-Dec-12 00:01N 25°44' W 080°01'612.3
2018-Dec-11 23:30N 25°46' W 080°08'3 4.8
2018-Dec-11 22:59N 25°46' W 080°11'0 0.0
2018-Dec-11 22:29N 25°46' W 080°11'0 0.0
2018-Dec-11 21:59N 25°46' W 080°11'0 0.0
2018-Dec-11 21:29N 25°46' W 080°11'0 0.0
2018-Dec-11 20:56N 25°46' W 080°11'0 0.0
2018-Dec-11 20:26N 25°46' W 080°11'0 0.0
2018-Dec-11 19:56N 25°46' W 080°11'0 0.0
2018-Dec-11 19:29N 25°46' W 080°11'0 0.0
2018-Dec-11 18:59N 25°46' W 080°11'0 0.0
2018-Dec-11 18:29N 25°46' W 080°11'0 0.0
2018-Dec-11 17:59N 25°46' W 080°11'0 0.0
2018-Dec-11 17:29N 25°46' W 080°11'0 0.0
2018-Dec-11 16:59N 25°46' W 080°11'0 0.0
2018-Dec-11 16:29N 25°46' W 080°11'0 0.0
2018-Dec-11 15:59N 25°46' W 080°11'0 0.0
2018-Dec-11 15:29N 25°46' W 080°11'0 0.0
2018-Dec-11 14:59N 25°46' W 080°11'0 0.0
2018-Dec-11 14:29N 25°46' W 080°11'0 0.0
2018-Dec-11 13:59N 25°46' W 080°11'0 0.0
2018-Dec-11 13:29N 25°46' W 080°11'0 0.0
2018-Dec-11 12:59N 25°46' W 080°11'0 0.0
2018-Dec-11 12:29N 25°46' W 080°11'0 0.0
2018-Dec-11 11:53N 25°46' W 080°11'0 0.0
2018-Dec-11 11:29N 25°46' W 080°11'0 0.0
2018-Dec-11 11:00N 25°46' W 080°11'0 0.1
2018-Dec-11 10:30N 25°46' W 080°11'3 6.2
2018-Dec-11 10:00N 25°46' W 080°07'5 9.9
2018-Dec-11 09:30N 25°47' W 080°02'3 6.4
2018-Dec-11 09:00N 25°49' W 079°59'3 6.2
2018-Dec-11 08:30N 25°50' W 079°56'3 6.1
2018-Dec-11 08:00N 25°52' W 079°53'3 6.0
2018-Dec-11 07:30N 25°53' W 079°51'3 5.9
2018-Dec-11 07:00N 25°55' W 079°48'3 6.0
2018-Dec-11 06:31N 25°57' W 079°45'3 6.2
2018-Dec-11 06:01N 25°59' W 079°42'3 6.3
2018-Dec-11 05:31N 26°00' W 079°39'3 6.4
2018-Dec-11 05:01N 26°02' W 079°37'3 6.3
2018-Dec-11 04:30N 26°04' W 079°34'3 6.3
2018-Dec-11 04:01N 26°06' W 079°31'3 6.3
2018-Dec-11 03:30N 26°08' W 079°28'90 7.8
2018-Dec-10 16:00N 26°06' W 077°48'21 7.0 280 / 201019.510.8 24.024.0
2018-Dec-10 13:00N 25°48' W 077°36'28 5.6 240 / 231017.5 5.4 25.025.029.0
2018-Dec-10 08:00N 25°30' W 077°12'25 1.0 220 / 201017.610.8 25.020.527.0
2018-Dec-09 08:00N 25°42' W 077°36'10311.6 120 / 161019.610.8 25.023.527.0
2018-Dec-08 23:09N 26°12' W 079°25'210.3
2018-Dec-08 22:58N 26°10' W 079°27'511.1
2018-Dec-08 22:30N 26°06' W 079°30'0 0.6
2018-Dec-08 22:00N 26°06' W 079°30'62183.1 120 / 191021.6 5.4 24.024.029.0
2018-Dec-08 21:59N 26°02' W 079°35'611.6
2018-Dec-08 21:31N 25°57' W 079°39'611.8
2018-Dec-08 21:01N 25°52' W 079°42'612.0
2018-Dec-08 20:30N 25°47' W 079°46'611.9
2018-Dec-08 20:00N 25°42' W 079°49'612.2
2018-Dec-08 19:31N 25°37' W 079°53'917.1
2018-Dec-08 18:57N 25°28' W 079°53'6516.3
2018-Dec-08 15:00N 24°24' W 080°06'3712.5 100 / 221024.610.8 23.023.0
2018-Dec-08 12:00N 24°06' W 080°42'4912.2 090 / 161022.610.8 24.024.022.0
2018-Dec-08 08:00N 23°36' W 081°24'58 2.4 090 / 191022.610.8 25.020.527.0
2018-Dec-07 08:00N 23°06' W 082°18'8 0.4 180 / 21024.610.8 21.017.827.0
2018-Dec-06 13:00N 23°12' W 082°12'38 7.5 040 / 201017.5 5.4 21.021.023.0
2018-Dec-06 08:00N 23°30' W 081°36'61 3.8 050 / 221022.610.8 22.017.227.0
2018-Dec-05 16:00N 24°30' W 081°48'9311.6 360 / 231022.010.8 24.017.721.0
2018-Dec-05 08:00N 24°24' W 080°06'30 6.1 350 / 171018.610.8 25.022.026.0
2018-Dec-05 03:00N 24°54' W 080°00'2818.0 260 / 91019.810.8 24.024.0
2018-Dec-05 01:27N 25°21' W 079°53'614.9
2018-Dec-05 01:01N 25°28' W 079°53'5275.4
2018-Dec-05 01:00N 25°30' W 079°48'613.0 250 / 101017.8 5.4 25.025.024.0
2018-Dec-05 00:30N 25°35' W 079°52'714.1
2018-Dec-05 00:01N 25°41' W 079°56'815.3
2018-Dec-04 23:31N 25°46' W 080°03'510.5
2018-Dec-04 23:01N 25°46' W 080°09'2 3.4
2018-Dec-04 22:30N 25°46' W 080°11'0 0.0
2018-Dec-04 22:00N 25°46' W 080°11'0 0.0
2018-Dec-04 21:30N 25°46' W 080°11'0 0.0
2018-Dec-04 21:00N 25°46' W 080°11'0 0.0
2018-Dec-04 20:30N 25°46' W 080°11'0 0.0
2018-Dec-04 20:00N 25°46' W 080°11'0 0.0
2018-Dec-04 19:30N 25°46' W 080°11'0 0.0
2018-Dec-04 19:00N 25°46' W 080°11'0 0.0
2018-Dec-04 18:30N 25°46' W 080°11'0 0.0
2018-Dec-04 17:57N 25°46' W 080°11'0 0.0
2018-Dec-04 17:30N 25°46' W 080°11'0 0.0
2018-Dec-04 17:00N 25°46' W 080°11'0 0.0
2018-Dec-04 16:27N 25°46' W 080°11'0 0.0
2018-Dec-04 16:00N 25°46' W 080°11'0 0.0
2018-Dec-04 15:30N 25°46' W 080°11'0 0.0
2018-Dec-04 15:00N 25°46' W 080°11'0 0.0
2018-Dec-04 14:30N 25°46' W 080°11'0 0.0
2018-Dec-04 14:00N 25°46' W 080°11'0 0.0
2018-Dec-04 13:30N 25°46' W 080°11'0 0.0
2018-Dec-04 13:00N 25°46' W 080°11'0 0.0
2018-Dec-04 12:27N 25°46' W 080°11'0 0.0
2018-Dec-04 12:00N 25°46' W 080°11'0 0.0
2018-Dec-04 11:30N 25°46' W 080°11'0 0.0
2018-Dec-04 11:00N 25°46' W 080°11'0 0.0
2018-Dec-04 10:31N 25°46' W 080°11'3 5.2
2018-Dec-04 10:00N 25°46' W 080°08'510.8
2018-Dec-04 09:30N 25°45' W 080°02'612.3
2018-Dec-04 09:00N 25°41' W 079°57'612.9
2018-Dec-04 08:30N 25°37' W 079°51'713.9
2018-Dec-04 08:00N 25°32' W 079°46'4303.6
2018-Dec-04 08:00N 25°30' W 079°42'4 9.0 190 / 91018.910.8 25.025.029.0
2018-Dec-04 07:30N 25°26' W 079°40'916.4
2018-Dec-04 06:59N 25°18' W 079°36'815.8
2018-Dec-04 06:28N 25°10' W 079°35'30515.7
2018-Dec-03 11:00N 21°18' W 076°00'2914.3 110 / 131017.8 5.4 26.026.023.0
2018-Dec-03 09:00N 21°12' W 075°30'9716.1 160 / 131018.910.8 26.023.128.0
2018-Dec-03 03:00N 20°36' W 073°54'   080 / 181020.810.8 27.027.020.0
Track history (hours):
 
Tides and Currents Weather Stations Pressure Air Temp Water Temp Dewpoint Dewpoint Depression Visibility Wind Speed Wind Dir Waves Ship Positions

Azamara Journey

Last reported at 2018-Dec-12 03:00 UTC. Time now 2018-Dec-12 14:56 UTC.
Position N 25°00' W 079°54'.

Type: Ship. MMSI: 256204000.

Wind from 340 at 11 knots

Barometer 1026.6 mb
Air temperature 16.0 ° C
Dewpoint 12.4 ° C

Date/timePositionNaut miles runAvg speedWind from/ knotsBaromVisibWave heightAir tempDewpointWater temp
2018-Dec-12 03:00N 25°00' W 079°54'2418.7 340 / 111026.6 16.012.4
2018-Dec-12 01:43N 25°24' W 079°53'314.1
2018-Dec-12 01:30N 25°27' W 079°53'713.9
2018-Dec-12 01:00N 25°34' W 079°52'713.3
2018-Dec-12 00:31N 25°40' W 079°54'815.0
2018-Dec-12 00:01N 25°44' W 080°01'612.3
2018-Dec-11 23:30N 25°46' W 080°08'3 4.8
2018-Dec-11 22:59N 25°46' W 080°11'0 0.0
2018-Dec-11 22:29N 25°46' W 080°11'0 0.0
2018-Dec-11 21:59N 25°46' W 080°11'0 0.0
2018-Dec-11 21:29N 25°46' W 080°11'0 0.0
2018-Dec-11 20:56N 25°46' W 080°11'0 0.0
2018-Dec-11 20:26N 25°46' W 080°11'0 0.0
2018-Dec-11 19:56N 25°46' W 080°11'0 0.0
2018-Dec-11 19:29N 25°46' W 080°11'0 0.0
2018-Dec-11 18:59N 25°46' W 080°11'0 0.0
2018-Dec-11 18:29N 25°46' W 080°11'0 0.0
2018-Dec-11 17:59N 25°46' W 080°11'0 0.0
2018-Dec-11 17:29N 25°46' W 080°11'0 0.0
2018-Dec-11 16:59N 25°46' W 080°11'0 0.0
2018-Dec-11 16:29N 25°46' W 080°11'0 0.0
2018-Dec-11 15:59N 25°46' W 080°11'0 0.0
2018-Dec-11 15:29N 25°46' W 080°11'0 0.0
2018-Dec-11 14:59N 25°46' W 080°11'0 0.0
2018-Dec-11 14:29N 25°46' W 080°11'0 0.0
2018-Dec-11 13:59N 25°46' W 080°11'0 0.0
2018-Dec-11 13:29N 25°46' W 080°11'0 0.0
2018-Dec-11 12:59N 25°46' W 080°11'0 0.0
2018-Dec-11 12:29N 25°46' W 080°11'0 0.0
2018-Dec-11 11:53N 25°46' W 080°11'0 0.0
2018-Dec-11 11:29N 25°46' W 080°11'0 0.0
2018-Dec-11 11:00N 25°46' W 080°11'0 0.1
2018-Dec-11 10:30N 25°46' W 080°11'3 6.2
2018-Dec-11 10:00N 25°46' W 080°07'5 9.9
2018-Dec-11 09:30N 25°47' W 080°02'3 6.4
2018-Dec-11 09:00N 25°49' W 079°59'3 6.2
2018-Dec-11 08:30N 25°50' W 079°56'3 6.1
2018-Dec-11 08:00N 25°52' W 079°53'3 6.0
2018-Dec-11 07:30N 25°53' W 079°51'3 5.9
2018-Dec-11 07:00N 25°55' W 079°48'3 6.0
2018-Dec-11 06:31N 25°57' W 079°45'3 6.2
2018-Dec-11 06:01N 25°59' W 079°42'3 6.3
2018-Dec-11 05:31N 26°00' W 079°39'3 6.4
2018-Dec-11 05:01N 26°02' W 079°37'3 6.3
2018-Dec-11 04:30N 26°04' W 079°34'3 6.3
2018-Dec-11 04:01N 26°06' W 079°31'3 6.3
2018-Dec-11 03:30N 26°08' W 079°28'90 7.8
2018-Dec-10 16:00N 26°06' W 077°48'21 7.0 280 / 201019.510.8 24.024.0
2018-Dec-10 13:00N 25°48' W 077°36'28 5.6 240 / 231017.5 5.4 25.025.029.0
2018-Dec-10 08:00N 25°30' W 077°12'25 1.0 220 / 201017.610.8 25.020.527.0
2018-Dec-09 08:00N 25°42' W 077°36'10311.6 120 / 161019.610.8 25.023.527.0
2018-Dec-08 23:09N 26°12' W 079°25'210.3
2018-Dec-08 22:58N 26°10' W 079°27'511.1
2018-Dec-08 22:30N 26°06' W 079°30'0 0.6
2018-Dec-08 22:00N 26°06' W 079°30'62183.1 120 / 191021.6 5.4 24.024.029.0
2018-Dec-08 21:59N 26°02' W 079°35'611.6
2018-Dec-08 21:31N 25°57' W 079°39'611.8
2018-Dec-08 21:01N 25°52' W 079°42'612.0
2018-Dec-08 20:30N 25°47' W 079°46'611.9
2018-Dec-08 20:00N 25°42' W 079°49'612.2
2018-Dec-08 19:31N 25°37' W 079°53'917.1
2018-Dec-08 18:57N 25°28' W 079°53'6516.3
2018-Dec-08 15:00N 24°24' W 080°06'3712.5 100 / 221024.610.8 23.023.0
2018-Dec-08 12:00N 24°06' W 080°42'4912.2 090 / 161022.610.8 24.024.022.0
2018-Dec-08 08:00N 23°36' W 081°24'58 2.4 090 / 191022.610.8 25.020.527.0
2018-Dec-07 08:00N 23°06' W 082°18'8 0.4 180 / 21024.610.8 21.017.827.0
2018-Dec-06 13:00N 23°12' W 082°12'38 7.5 040 / 201017.5 5.4 21.021.023.0
2018-Dec-06 08:00N 23°30' W 081°36'61 3.8 050 / 221022.610.8 22.017.227.0
2018-Dec-05 16:00N 24°30' W 081°48'9311.6 360 / 231022.010.8 24.017.721.0
2018-Dec-05 08:00N 24°24' W 080°06'30 6.1 350 / 171018.610.8 25.022.026.0
2018-Dec-05 03:00N 24°54' W 080°00'2818.0 260 / 91019.810.8 24.024.0
2018-Dec-05 01:27N 25°21' W 079°53'614.9
2018-Dec-05 01:01N 25°28' W 079°53'5275.4
2018-Dec-05 01:00N 25°30' W 079°48'613.0 250 / 101017.8 5.4 25.025.024.0
2018-Dec-05 00:30N 25°35' W 079°52'714.1
2018-Dec-05 00:01N 25°41' W 079°56'815.3
2018-Dec-04 23:31N 25°46' W 080°03'510.5
2018-Dec-04 23:01N 25°46' W 080°09'2 3.4
2018-Dec-04 22:30N 25°46' W 080°11'0 0.0
2018-Dec-04 22:00N 25°46' W 080°11'0 0.0
2018-Dec-04 21:30N 25°46' W 080°11'0 0.0
2018-Dec-04 21:00N 25°46' W 080°11'0 0.0
2018-Dec-04 20:30N 25°46' W 080°11'0 0.0
2018-Dec-04 20:00N 25°46' W 080°11'0 0.0
2018-Dec-04 19:30N 25°46' W 080°11'0 0.0
2018-Dec-04 19:00N 25°46' W 080°11'0 0.0
2018-Dec-04 18:30N 25°46' W 080°11'0 0.0
2018-Dec-04 17:57N 25°46' W 080°11'0 0.0
2018-Dec-04 17:30N 25°46' W 080°11'0 0.0
2018-Dec-04 17:00N 25°46' W 080°11'0 0.0
2018-Dec-04 16:27N 25°46' W 080°11'0 0.0
2018-Dec-04 16:00N 25°46' W 080°11'0 0.0
2018-Dec-04 15:30N 25°46' W 080°11'0 0.0
2018-Dec-04 15:00N 25°46' W 080°11'0 0.0
2018-Dec-04 14:30N 25°46' W 080°11'0 0.0
2018-Dec-04 14:00N 25°46' W 080°11'0 0.0
2018-Dec-04 13:30N 25°46' W 080°11'0 0.0
2018-Dec-04 13:00N 25°46' W 080°11'0 0.0
2018-Dec-04 12:27N 25°46' W 080°11'0 0.0
2018-Dec-04 12:00N 25°46' W 080°11'0 0.0
2018-Dec-04 11:30N 25°46' W 080°11'0 0.0
2018-Dec-04 11:00N 25°46' W 080°11'0 0.0
2018-Dec-04 10:31N 25°46' W 080°11'3 5.2
2018-Dec-04 10:00N 25°46' W 080°08'510.8
2018-Dec-04 09:30N 25°45' W 080°02'612.3
2018-Dec-04 09:00N 25°41' W 079°57'612.9
2018-Dec-04 08:30N 25°37' W 079°51'713.9
2018-Dec-04 08:00N 25°32' W 079°46'4303.6
2018-Dec-04 08:00N 25°30' W 079°42'4 9.0 190 / 91018.910.8 25.025.029.0
2018-Dec-04 07:30N 25°26' W 079°40'916.4
2018-Dec-04 06:59N 25°18' W 079°36'815.8
2018-Dec-04 06:28N 25°10' W 079°35'30515.7
2018-Dec-03 11:00N 21°18' W 076°00'2914.3 110 / 131017.8 5.4 26.026.023.0
2018-Dec-03 09:00N 21°12' W 075°30'9716.1 160 / 131018.910.8 26.023.128.0
2018-Dec-03 03:00N 20°36' W 073°54'   080 / 181020.810.8 27.027.020.0

Dump ship's entire track history